Time;durP1;ratioP1;P1;durP2;ratioP2;P2;SDS_P1;SDS_P2;PMS_P1;PMS_P2;Temp;Humidity;BMP_temperature;BMP_pressure;BME280_temperature;BME280_humidity;BME280_pressure;Samples;Min_cycle;Max_cycle;Signal;HPM_P1;HPM_P2
2023/01/25 00:01:25;;;;;;;;;;;0.90;99.90;;;;;;5104983;28;19924;-79
2023/01/25 00:03:50;;;;;;;;;;;1.00;99.90;;;;;;5113589;27;20406;-79
2023/01/25 00:06:16;;;;;;;;;;;0.90;99.90;;;;;;5137502;27;19923;-80
2023/01/25 00:08:41;;;;;;;;;;;0.90;99.90;;;;;;5124349;27;19931;-80
2023/01/25 00:11:07;;;;;;;;;;;0.90;99.90;;;;;;5116195;28;19970;-79
2023/01/25 00:13:32;;;;;;;;;;;0.90;99.90;;;;;;5132704;27;19942;-80
2023/01/25 00:16:02;;;;;;;;;;;0.80;99.90;;;;;;5138664;27;19973;-79
2023/01/25 00:18:28;;;;;;;;;;;0.80;99.90;;;;;;5103031;27;19924;-80
2023/01/25 00:20:53;;;;;;;;;;;0.90;99.90;;;;;;5123245;27;19928;-79
2023/01/25 00:23:19;;;;;;;;;;;0.80;99.90;;;;;;5123953;27;19923;-79
2023/01/25 00:25:44;;;;;;;;;;;0.80;99.90;;;;;;5122479;27;19955;-79
2023/01/25 00:28:10;;;;;;;;;;;0.80;99.90;;;;;;5110907;27;19927;-79
2023/01/25 00:30:35;;;;;;;;;;;0.80;99.90;;;;;;5124541;27;19924;-79
2023/01/25 00:33:21;;;;;;;;;;;0.80;99.90;;;;;;5122828;27;19927;-79
2023/01/25 00:35:47;;;;;;;;;;;0.70;99.90;;;;;;5080136;28;20353;-79
2023/01/25 00:38:42;;;;;;;;;;;0.70;99.90;;;;;;5111280;27;19962;-80
2023/01/25 00:41:08;;;;;;;;;;;0.80;99.90;;;;;;5102261;27;19970;-80
2023/01/25 00:43:34;;;;;;;;;;;0.80;99.90;;;;;;5122197;27;19923;-79
2023/01/25 00:46:00;;;;;;;;;;;0.80;99.90;;;;;;5099921;28;19924;-79
2023/01/25 00:48:26;;;;;;;;;;;0.70;99.90;;;;;;5122141;27;19923;-79
2023/01/25 00:50:51;;;;;;;;;;;0.70;99.90;;;;;;5121862;27;19969;-79
2023/01/25 00:53:17;;;;;;;;;;;0.60;99.90;;;;;;5099330;27;19932;-79
2023/01/25 00:55:50;;;;;;;;;;;0.60;99.90;;;;;;5102494;27;19997;-79
2023/01/25 00:58:15;;;;;;;;;;;0.60;99.90;;;;;;5117423;27;19927;-79
2023/01/25 01:00:41;;;;;;;;;;;0.60;99.90;;;;;;5121901;27;19977;-79
2023/01/25 01:03:06;;;;;;;;;;;0.60;99.90;;;;;;5131601;27;19923;-79
2023/01/25 01:05:34;;;;;;;;;;;0.60;99.90;;;;;;5100922;27;19924;-79
2023/01/25 01:08:00;;;;;;;;;;;0.50;99.90;;;;;;5116056;27;19965;-80
2023/01/25 01:10:26;;;;;;;;;;;0.60;99.90;;;;;;5122790;27;19924;-80
2023/01/25 01:12:51;;;;;;;;;;;0.60;99.90;;;;;;5122318;27;19924;-79
2023/01/25 01:15:17;;;;;;;;;;;0.60;99.90;;;;;;5098768;28;19983;-79
2023/01/25 01:17:42;;;;;;;;;;;0.60;99.90;;;;;;5136163;27;19934;-79
2023/01/25 01:20:08;;;;;;;;;;;0.60;99.90;;;;;;5084749;28;19963;-79
2023/01/25 01:22:34;;;;;;;;;;;0.60;99.90;;;;;;5137155;27;19927;-79
2023/01/25 01:24:59;;;;;;;;;;;0.60;99.90;;;;;;5120780;27;19930;-79
2023/01/25 01:27:25;;;;;;;;;;;0.60;99.90;;;;;;5119073;27;19975;-79
2023/01/25 01:29:50;;;;;;;;;;;0.50;99.90;;;;;;5107734;27;19923;-79
2023/01/25 01:32:16;;;;;;;;;;;0.50;99.90;;;;;;5135139;27;19958;-78
2023/01/25 01:34:42;;;;;;;;;;;0.40;99.90;;;;;;5116955;27;20031;-79
2023/01/25 01:37:08;;;;;;;;;;;0.40;99.90;;;;;;5121216;27;19923;-80
2023/01/25 01:39:33;;;;;;;;;;;0.50;99.90;;;;;;5132865;27;20449;-79
2023/01/25 01:41:59;;;;;;;;;;;0.50;99.90;;;;;;5101791;27;19923;-79
2023/01/25 01:44:43;;;;;;;;;;;0.40;99.90;;;;;;5118349;27;20018;-80
2023/01/25 01:47:13;;;;;;;;;;;0.40;99.90;;;;;;5093079;27;19949;-80
2023/01/25 01:49:38;;;;;;;;;;;0.50;99.90;;;;;;5112177;27;19923;-79
2023/01/25 01:52:11;;;;;;;;;;;0.40;99.90;;;;;;5135726;27;19923;-80
2023/01/25 01:54:47;;;;;;;;;;;0.50;99.90;;;;;;5100455;27;19943;-79
2023/01/25 01:57:15;;;;;;;;;;;0.50;99.90;;;;;;5090257;27;19944;-80
2023/01/25 01:59:49;;;;;;;;;;;0.40;99.90;;;;;;5108933;28;19930;-79
2023/01/25 02:02:15;;;;;;;;;;;0.40;99.90;;;;;;5133172;27;19934;-79
2023/01/25 02:04:41;;;;;;;;;;;0.40;99.90;;;;;;5134411;27;19947;-79
2023/01/25 02:07:10;;;;;;;;;;;0.40;99.90;;;;;;5107634;27;19934;-80
2023/01/25 02:09:36;;;;;;;;;;;0.30;99.90;;;;;;5117117;28;19935;-80
2023/01/25 02:12:02;;;;;;;;;;;0.30;99.90;;;;;;5127550;27;19924;-79
2023/01/25 02:14:28;;;;;;;;;;;0.40;99.90;;;;;;5120346;28;20392;-79
2023/01/25 02:16:53;;;;;;;;;;;0.40;99.90;;;;;;5092624;28;19938;-80
2023/01/25 02:19:38;;;;;;;;;;;0.40;99.90;;;;;;5135697;28;19931;-80
2023/01/25 02:22:09;;;;;;;;;;;0.30;99.90;;;;;;5122183;28;19927;-80
2023/01/25 02:24:36;;;;;;;;;;;0.40;99.90;;;;;;5118805;28;19966;-80
2023/01/25 02:27:02;;;;;;;;;;;0.40;99.90;;;;;;5117734;28;20294;-80
2023/01/25 02:29:28;;;;;;;;;;;0.40;99.90;;;;;;5116703;28;19923;-80
2023/01/25 02:32:03;;;;;;;;;;;0.40;99.90;;;;;;5113847;28;19938;-80
2023/01/25 02:34:29;;;;;;;;;;;0.40;99.90;;;;;;5105242;28;19923;-79
2023/01/25 02:36:55;;;;;;;;;;;0.50;99.90;;;;;;5117546;28;19963;-80
2023/01/25 02:39:22;;;;;;;;;;;0.40;99.90;;;;;;5137222;28;19923;-79
2023/01/25 02:41:48;;;;;;;;;;;0.40;99.90;;;;;;5117582;28;20439;-80
2023/01/25 02:44:34;;;;;;;;;;;0.40;99.90;;;;;;5121142;28;19983;-80
2023/01/25 02:47:00;;;;;;;;;;;0.40;99.90;;;;;;5111107;28;19950;-80
2023/01/25 02:49:25;;;;;;;;;;;0.30;99.90;;;;;;5116218;27;20639;-80
2023/01/25 02:51:54;;;;;;;;;;;0.30;99.90;;;;;;5122273;28;19978;-80
2023/01/25 02:54:20;;;;;;;;;;;0.30;99.90;;;;;;5119901;28;19924;-80
2023/01/25 02:56:46;;;;;;;;;;;0.30;99.90;;;;;;5116892;28;19924;-80
2023/01/25 02:59:12;;;;;;;;;;;0.40;99.90;;;;;;5127055;27;19934;-79
2023/01/25 03:01:38;;;;;;;;;;;0.40;99.90;;;;;;5116401;27;19928;-79
2023/01/25 03:04:04;;;;;;;;;;;0.40;99.90;;;;;;5125420;27;19962;-80
2023/01/25 03:06:30;;;;;;;;;;;0.40;99.90;;;;;;5107972;27;20016;-80
2023/01/25 03:08:56;;;;;;;;;;;0.40;99.90;;;;;;5095810;28;19924;-80
2023/01/25 03:11:21;;;;;;;;;;;0.40;99.90;;;;;;5117291;27;19990;-80
2023/01/25 03:13:47;;;;;;;;;;;0.40;99.90;;;;;;5119684;27;19924;-80
2023/01/25 03:16:13;;;;;;;;;;;0.40;99.90;;;;;;5135617;27;19928;-80
2023/01/25 03:18:39;;;;;;;;;;;0.30;99.90;;;;;;5125274;27;19924;-79
2023/01/25 03:21:05;;;;;;;;;;;0.40;99.90;;;;;;5123897;27;19969;-79
2023/01/25 03:23:31;;;;;;;;;;;0.40;99.90;;;;;;5123064;27;19923;-80
2023/01/25 03:26:04;;;;;;;;;;;0.40;99.90;;;;;;5114476;27;19953;-80
2023/01/25 03:28:30;;;;;;;;;;;0.40;99.90;;;;;;5123190;27;20030;-80
2023/01/25 03:30:55;;;;;;;;;;;0.40;99.90;;;;;;5125036;27;19928;-80
2023/01/25 03:33:21;;;;;;;;;;;0.30;99.90;;;;;;5122008;27;19987;-80
2023/01/25 03:35:50;;;;;;;;;;;0.40;99.90;;;;;;5076959;28;19945;-80
2023/01/25 03:38:16;;;;;;;;;;;0.40;99.90;;;;;;5114517;27;19963;-80
2023/01/25 03:40:41;;;;;;;;;;;0.40;99.90;;;;;;5124177;27;19935;-79
2023/01/25 03:43:07;;;;;;;;;;;0.40;99.90;;;;;;5125356;27;20262;-80
2023/01/25 03:45:33;;;;;;;;;;;0.40;99.90;;;;;;5111625;27;19939;-80
2023/01/25 03:47:58;;;;;;;;;;;0.40;99.90;;;;;;5102322;27;19927;-80
2023/01/25 03:50:24;;;;;;;;;;;0.40;99.90;;;;;;5130222;27;20429;-79
2023/01/25 03:52:57;;;;;;;;;;;0.40;99.90;;;;;;5107425;27;19927;-79
2023/01/25 03:55:23;;;;;;;;;;;0.40;99.90;;;;;;5107542;27;19927;-80
2023/01/25 03:57:48;;;;;;;;;;;0.40;99.90;;;;;;5123219;27;20016;-80
2023/01/25 04:00:14;;;;;;;;;;;0.40;99.90;;;;;;5124875;27;19927;-80
2023/01/25 04:02:40;;;;;;;;;;;0.40;99.90;;;;;;5112584;28;19924;-79
2023/01/25 04:05:06;;;;;;;;;;;0.40;99.90;;;;;;5105713;27;19935;-80
2023/01/25 04:07:33;;;;;;;;;;;0.40;99.90;;;;;;5101136;27;19924;-80
2023/01/25 04:09:58;;;;;;;;;;;0.50;99.90;;;;;;5124247;27;19995;-80
2023/01/25 04:12:24;;;;;;;;;;;0.40;99.90;;;;;;5106859;27;19923;-80
2023/01/25 04:14:49;;;;;;;;;;;0.40;99.90;;;;;;5105405;27;20460;-80
2023/01/25 04:17:15;;;;;;;;;;;0.40;99.90;;;;;;5106711;27;19983;-80
2023/01/25 04:19:40;;;;;;;;;;;0.30;99.90;;;;;;5123526;27;19930;-80
2023/01/25 04:22:07;;;;;;;;;;;0.30;99.90;;;;;;5118413;28;20433;-80
2023/01/25 04:24:33;;;;;;;;;;;0.30;99.90;;;;;;5098105;27;20153;-80
2023/01/25 04:26:58;;;;;;;;;;;0.30;99.90;;;;;;5103721;27;19927;-79
2023/01/25 04:29:24;;;;;;;;;;;0.30;99.90;;;;;;5123374;27;19923;-80
2023/01/25 04:31:49;;;;;;;;;;;0.30;99.90;;;;;;5125349;27;19950;-78
2023/01/25 04:34:15;;;;;;;;;;;0.30;99.90;;;;;;5125385;27;19923;-80
2023/01/25 04:36:41;;;;;;;;;;;0.40;99.90;;;;;;5112000;28;19924;-79
2023/01/25 04:39:06;;;;;;;;;;;0.40;99.90;;;;;;5106546;27;20476;-80
2023/01/25 04:41:32;;;;;;;;;;;0.40;99.90;;;;;;5122346;27;19941;-79
2023/01/25 04:43:57;;;;;;;;;;;0.40;99.90;;;;;;5124301;27;19923;-80
2023/01/25 04:46:23;;;;;;;;;;;0.40;99.90;;;;;;5105279;27;20504;-79
2023/01/25 04:48:48;;;;;;;;;;;0.40;99.90;;;;;;5112353;27;19946;-80
2023/01/25 04:51:14;;;;;;;;;;;0.40;99.90;;;;;;5156390;27;19930;-79
2023/01/25 04:53:39;;;;;;;;;;;0.40;99.90;;;;;;5140322;27;19931;-80
2023/01/25 04:56:05;;;;;;;;;;;0.50;99.90;;;;;;5140798;27;19930;-80
2023/01/25 04:58:31;;;;;;;;;;;0.40;99.90;;;;;;5116548;27;19990;-80
2023/01/25 05:01:00;;;;;;;;;;;0.40;99.90;;;;;;5136502;27;19927;-80
2023/01/25 05:03:26;;;;;;;;;;;0.40;99.90;;;;;;5100257;28;19924;-80
2023/01/25 05:05:51;;;;;;;;;;;0.40;99.90;;;;;;5094530;27;19924;-79
2023/01/25 05:08:17;;;;;;;;;;;0.40;99.90;;;;;;5106763;27;20074;-80
2023/01/25 05:10:43;;;;;;;;;;;0.40;99.90;;;;;;5129062;27;19923;-79
2023/01/25 05:13:08;;;;;;;;;;;0.30;99.90;;;;;;5092062;27;20385;-80
2023/01/25 05:15:34;;;;;;;;;;;0.40;99.90;;;;;;5118734;27;20382;-79
2023/01/25 05:17:59;;;;;;;;;;;0.40;99.90;;;;;;5098189;27;20000;-79
2023/01/25 05:20:25;;;;;;;;;;;0.30;99.90;;;;;;5117966;27;19923;-80
2023/01/25 05:22:51;;;;;;;;;;;0.40;99.90;;;;;;5119500;27;19994;-79
2023/01/25 05:28:03;;;;;;;;;;;0.50;99.90;;;;;;5109417;27;19927;-80
2023/01/25 05:30:29;;;;;;;;;;;0.30;99.90;;;;;;5133062;27;19924;-80
2023/01/25 05:32:54;;;;;;;;;;;0.40;99.90;;;;;;5123010;27;19950;-79
2023/01/25 05:35:20;;;;;;;;;;;0.40;99.90;;;;;;5119969;28;20474;-79
2023/01/25 05:37:45;;;;;;;;;;;0.40;99.90;;;;;;5117186;27;19934;-79
2023/01/25 05:40:11;;;;;;;;;;;0.30;99.90;;;;;;5117507;27;19930;-79
2023/01/25 05:42:37;;;;;;;;;;;0.30;99.90;;;;;;5095357;27;19946;-80
2023/01/25 05:45:03;;;;;;;;;;;0.30;99.90;;;;;;5117680;27;20480;-80
2023/01/25 05:47:28;;;;;;;;;;;0.30;99.90;;;;;;5123051;27;19930;-80
2023/01/25 05:49:54;;;;;;;;;;;0.40;99.90;;;;;;5128856;27;20423;-80
2023/01/25 05:52:19;;;;;;;;;;;0.30;99.90;;;;;;5125217;27;19987;-80
2023/01/25 05:54:45;;;;;;;;;;;0.30;99.90;;;;;;5120000;27;19924;-79
2023/01/25 05:57:12;;;;;;;;;;;0.30;99.90;;;;;;5122677;27;20018;-80
2023/01/25 05:59:38;;;;;;;;;;;0.30;99.90;;;;;;5122184;27;19923;-79
2023/01/25 06:02:03;;;;;;;;;;;0.30;99.90;;;;;;5119372;27;19937;-79
2023/01/25 06:04:29;;;;;;;;;;;0.20;99.90;;;;;;5121996;28;19927;-79
2023/01/25 06:06:54;;;;;;;;;;;0.20;99.90;;;;;;5120111;27;19928;-80
2023/01/25 06:09:21;;;;;;;;;;;0.20;99.90;;;;;;5105892;27;20302;-80
2023/01/25 06:11:46;;;;;;;;;;;0.20;99.90;;;;;;5120084;27;19923;-80
2023/01/25 06:14:12;;;;;;;;;;;0.20;99.90;;;;;;5122154;27;20392;-80
2023/01/25 06:16:38;;;;;;;;;;;0.30;99.90;;;;;;5113433;28;19923;-80
2023/01/25 06:19:05;;;;;;;;;;;0.20;99.90;;;;;;5119028;28;19927;-79
2023/01/25 06:21:30;;;;;;;;;;;0.20;99.90;;;;;;5113966;28;20291;-80
2023/01/25 06:23:56;;;;;;;;;;;0.20;99.90;;;;;;5118206;28;19924;-80
2023/01/25 06:26:22;;;;;;;;;;;0.20;99.90;;;;;;5120528;28;20316;-79
2023/01/25 06:28:47;;;;;;;;;;;0.20;99.90;;;;;;5091567;27;19927;-80
2023/01/25 06:31:14;;;;;;;;;;;0.10;99.90;;;;;;5114261;28;19934;-80
2023/01/25 06:33:40;;;;;;;;;;;0.10;99.90;;;;;;5111698;28;19927;-79
2023/01/25 06:36:09;;;;;;;;;;;0.20;99.90;;;;;;5124393;27;19924;-80
2023/01/25 06:38:35;;;;;;;;;;;0.20;99.90;;;;;;5124261;27;19934;-80
2023/01/25 06:41:01;;;;;;;;;;;0.10;99.90;;;;;;5141178;27;19986;-80
2023/01/25 06:43:27;;;;;;;;;;;0.10;99.90;;;;;;5123324;27;19924;-80
2023/01/25 06:45:56;;;;;;;;;;;0.10;99.90;;;;;;5123297;27;20701;-80
2023/01/25 06:48:22;;;;;;;;;;;0.20;99.90;;;;;;5141112;27;19923;-80
2023/01/25 06:50:52;;;;;;;;;;;0.20;99.90;;;;;;5125565;27;20436;-80
2023/01/25 06:53:17;;;;;;;;;;;0.10;99.90;;;;;;5116412;27;19924;-80
2023/01/25 06:55:43;;;;;;;;;;;0.20;99.90;;;;;;5120476;27;20038;-80
2023/01/25 06:58:08;;;;;;;;;;;0.10;99.90;;;;;;5142530;27;19924;-80
2023/01/25 07:00:34;;;;;;;;;;;0.20;99.90;;;;;;5122287;27;19933;-80
2023/01/25 07:02:59;;;;;;;;;;;0.20;99.90;;;;;;5121940;27;19931;-80
2023/01/25 07:05:25;;;;;;;;;;;0.20;99.90;;;;;;5098729;27;19990;-79
2023/01/25 07:07:50;;;;;;;;;;;0.20;99.90;;;;;;5124929;27;19949;-80
2023/01/25 07:10:16;;;;;;;;;;;0.20;99.90;;;;;;5123648;27;19962;-79
2023/01/25 07:12:42;;;;;;;;;;;0.30;99.90;;;;;;5119058;27;19924;-80
2023/01/25 07:15:07;;;;;;;;;;;0.20;99.90;;;;;;5124503;27;19924;-79
2023/01/25 07:17:33;;;;;;;;;;;0.10;99.90;;;;;;5122167;27;20007;-79
2023/01/25 07:19:59;;;;;;;;;;;0.00;99.90;;;;;;5122936;27;19985;-79
2023/01/25 07:22:24;;;;;;;;;;;0.00;99.90;;;;;;5113552;27;19970;-79
2023/01/25 07:24:51;;;;;;;;;;;0.00;99.90;;;;;;5103460;27;19923;-80
2023/01/25 07:27:16;;;;;;;;;;;0.10;99.90;;;;;;5123008;27;19923;-80
2023/01/25 07:29:42;;;;;;;;;;;0.10;99.90;;;;;;5143431;27;19923;-79
2023/01/25 07:32:08;;;;;;;;;;;0.10;99.90;;;;;;5115588;27;19924;-80
2023/01/25 07:34:33;;;;;;;;;;;0.10;99.90;;;;;;5104843;27;19994;-79
2023/01/25 07:36:59;;;;;;;;;;;0.10;99.90;;;;;;5113768;27;19953;-80
2023/01/25 07:39:24;;;;;;;;;;;0.10;99.90;;;;;;5082468;28;19927;-79
2023/01/25 07:41:50;;;;;;;;;;;0.10;99.90;;;;;;5111674;28;19931;-80
2023/01/25 07:44:16;;;;;;;;;;;0.10;99.90;;;;;;5103793;28;20102;-79
2023/01/25 07:46:41;;;;;;;;;;;0.10;99.90;;;;;;5095335;28;19946;-80
2023/01/25 07:49:07;;;;;;;;;;;0.10;99.90;;;;;;5115311;28;19924;-79
2023/01/25 07:51:32;;;;;;;;;;;0.10;99.90;;;;;;5134097;28;19944;-80
2023/01/25 07:54:00;;;;;;;;;;;0.00;99.90;;;;;;5108384;28;19935;-79
2023/01/25 07:56:27;;;;;;;;;;;0.10;99.90;;;;;;5120789;28;19934;-80
2023/01/25 07:58:53;;;;;;;;;;;0.10;99.90;;;;;;5119420;28;19974;-79
2023/01/25 08:01:20;;;;;;;;;;;0.10;99.90;;;;;;5136806;28;20417;-79
2023/01/25 08:03:46;;;;;;;;;;;0.10;99.90;;;;;;5115720;28;19927;-79
2023/01/25 08:06:12;;;;;;;;;;;0.10;99.90;;;;;;5122502;28;19972;-80
2023/01/25 08:08:38;;;;;;;;;;;0.20;99.90;;;;;;5122842;28;19934;-79
2023/01/25 08:11:09;;;;;;;;;;;0.20;99.90;;;;;;5122306;28;20022;-80
2023/01/25 08:13:35;;;;;;;;;;;0.20;99.90;;;;;;5116814;28;20346;-80
2023/01/25 08:16:00;;;;;;;;;;;0.20;99.90;;;;;;5114229;28;19963;-80
2023/01/25 08:18:26;;;;;;;;;;;0.20;99.90;;;;;;5123187;28;19924;-79
2023/01/25 08:20:52;;;;;;;;;;;0.20;99.90;;;;;;5141086;28;19924;-79
2023/01/25 08:23:19;;;;;;;;;;;0.20;99.90;;;;;;5108492;28;19973;-80
2023/01/25 08:25:45;;;;;;;;;;;0.30;99.90;;;;;;5121372;28;20060;-80
2023/01/25 08:28:10;;;;;;;;;;;0.20;99.90;;;;;;5139060;28;19924;-80
2023/01/25 08:30:36;;;;;;;;;;;0.30;99.90;;;;;;5122760;28;19923;-80
2023/01/25 08:33:02;;;;;;;;;;;0.30;99.90;;;;;;5119263;28;19923;-79
2023/01/25 08:35:27;;;;;;;;;;;0.30;99.90;;;;;;5115231;28;19968;-80
2023/01/25 08:37:53;;;;;;;;;;;0.20;99.90;;;;;;5041844;27;1805879;-80
2023/01/25 08:40:18;;;;;;;;;;;0.20;99.90;;;;;;5121128;27;19923;-79
2023/01/25 08:42:44;;;;;;;;;;;0.20;99.90;;;;;;5141431;27;19960;-79
2023/01/25 08:45:09;;;;;;;;;;;0.20;99.90;;;;;;5114578;28;19976;-79
2023/01/25 08:47:35;;;;;;;;;;;0.20;99.90;;;;;;5123749;27;19930;-79
2023/01/25 08:50:01;;;;;;;;;;;0.20;99.90;;;;;;5094868;28;19924;-80
2023/01/25 08:52:26;;;;;;;;;;;0.20;99.90;;;;;;5118767;27;19960;-80
2023/01/25 08:54:52;;;;;;;;;;;0.10;99.90;;;;;;5117140;27;19928;-79
2023/01/25 08:57:17;;;;;;;;;;;0.20;99.90;;;;;;5137220;27;19923;-80
2023/01/25 08:59:43;;;;;;;;;;;0.20;99.90;;;;;;5123286;27;19935;-79
2023/01/25 09:02:12;;;;;;;;;;;0.20;99.90;;;;;;5119472;27;19969;-79
2023/01/25 09:04:37;;;;;;;;;;;0.20;99.90;;;;;;5119996;27;19923;-79
2023/01/25 09:07:03;;;;;;;;;;;0.20;99.90;;;;;;5108841;27;19938;-79
2023/01/25 09:09:29;;;;;;;;;;;0.30;99.90;;;;;;5115192;27;19931;-80
2023/01/25 09:11:55;;;;;;;;;;;0.20;99.90;;;;;;5109837;27;19924;-80
2023/01/25 09:14:20;;;;;;;;;;;0.20;99.90;;;;;;5101596;27;19971;-80
2023/01/25 09:16:46;;;;;;;;;;;0.20;99.90;;;;;;5097814;27;19990;-79
2023/01/25 09:19:12;;;;;;;;;;;0.20;99.90;;;;;;5115246;27;19924;-79
2023/01/25 09:21:38;;;;;;;;;;;0.20;99.90;;;;;;5117207;27;19945;-80
2023/01/25 09:24:04;;;;;;;;;;;0.20;99.90;;;;;;5111526;28;19928;-80
2023/01/25 09:26:30;;;;;;;;;;;0.20;99.90;;;;;;5119218;28;19934;-79
2023/01/25 09:28:55;;;;;;;;;;;0.20;99.90;;;;;;5111992;27;19955;-80
2023/01/25 09:31:21;;;;;;;;;;;0.10;99.90;;;;;;5120961;27;19986;-79
2023/01/25 09:33:47;;;;;;;;;;;0.10;99.90;;;;;;5109911;27;20005;-78
2023/01/25 09:36:12;;;;;;;;;;;0.10;99.90;;;;;;5113641;27;20377;-80
2023/01/25 09:38:38;;;;;;;;;;;0.10;99.90;;;;;;5109994;28;19962;-79
2023/01/25 09:41:03;;;;;;;;;;;0.10;99.90;;;;;;5095346;28;19935;-80
2023/01/25 09:43:48;;;;;;;;;;;0.10;99.90;;;;;;5095026;28;19928;-80
2023/01/25 09:46:20;;;;;;;;;;;0.10;99.90;;;;;;5086092;28;20019;-80
2023/01/25 09:48:52;;;;;;;;;;;0.20;99.90;;;;;;5084404;28;20011;-80
2023/01/25 09:51:25;;;;;;;;;;;0.20;99.90;;;;;;5086784;28;19936;-80
2023/01/25 09:53:52;;;;;;;;;;;0.20;99.90;;;;;;5087701;28;19924;-80
2023/01/25 09:56:26;;;;;;;;;;;0.20;99.90;;;;;;5073389;28;19986;-80
2023/01/25 09:58:54;;;;;;;;;;;0.30;99.90;;;;;;5091340;28;19924;-80
2023/01/25 10:01:43;;;;;;;;;;;0.30;99.90;;;;;;5079846;28;19992;-81
2023/01/25 10:04:20;;;;;;;;;;;0.30;99.90;;;;;;5096070;28;19930;-80
2023/01/25 10:06:48;;;;;;;;;;;0.30;99.90;;;;;;5093987;28;19978;-80
2023/01/25 10:09:23;;;;;;;;;;;0.30;99.90;;;;;;5077427;28;19924;-81
2023/01/25 10:11:49;;;;;;;;;;;0.30;99.90;;;;;;5096681;28;19928;-80
2023/01/25 10:14:15;;;;;;;;;;;0.40;99.90;;;;;;5093796;28;19928;-80
2023/01/25 10:16:48;;;;;;;;;;;0.40;99.90;;;;;;5086842;28;19928;-80
2023/01/25 10:19:17;;;;;;;;;;;0.40;99.90;;;;;;5088986;28;19928;-80
2023/01/25 10:22:03;;;;;;;;;;;0.30;99.90;;;;;;5096302;28;20310;-80
2023/01/25 10:24:37;;;;;;;;;;;0.40;99.90;;;;;;5088610;28;19924;-79
2023/01/25 10:27:15;;;;;;;;;;;0.30;99.90;;;;;;5094801;28;19970;-79
2023/01/25 10:29:41;;;;;;;;;;;0.30;99.90;;;;;;5098751;28;19924;-79
2023/01/25 10:32:12;;;;;;;;;;;0.30;99.90;;;;;;5075515;28;20417;-80
2023/01/25 10:34:45;;;;;;;;;;;0.30;99.90;;;;;;5093500;28;19932;-79
2023/01/25 10:37:12;;;;;;;;;;;0.20;99.90;;;;;;5095549;28;19959;-79
2023/01/25 10:39:41;;;;;;;;;;;0.30;99.90;;;;;;5097195;28;19979;-80
2023/01/25 10:42:10;;;;;;;;;;;0.30;99.90;;;;;;5116271;28;19932;-80
2023/01/25 10:44:36;;;;;;;;;;;0.30;99.90;;;;;;5115305;28;20010;-80
2023/01/25 10:47:21;;;;;;;;;;;0.30;99.90;;;;;;5115300;28;19975;-79
2023/01/25 10:49:49;;;;;;;;;;;0.30;99.90;;;;;;5115072;28;19931;-80
2023/01/25 10:52:14;;;;;;;;;;;0.30;99.90;;;;;;5094411;28;20417;-80
2023/01/25 10:54:40;;;;;;;;;;;0.30;99.90;;;;;;5092561;28;19945;-80
2023/01/25 10:57:07;;;;;;;;;;;0.30;99.90;;;;;;5099991;28;19924;-80
2023/01/25 10:59:34;;;;;;;;;;;0.30;99.90;;;;;;5098378;28;19977;-80
2023/01/25 11:02:23;;;;;;;;;;;0.20;99.90;;;;;;5115824;28;19933;-80
2023/01/25 11:04:49;;;;;;;;;;;0.20;99.90;;;;;;5097560;28;19931;-80
2023/01/25 11:07:27;;;;;;;;;;;0.30;99.90;;;;;;5115886;28;19923;-80
2023/01/25 11:09:53;;;;;;;;;;;0.30;99.90;;;;;;5118713;28;20028;-80
2023/01/25 11:12:19;;;;;;;;;;;0.30;99.90;;;;;;5115584;28;19923;-80
2023/01/25 11:14:48;;;;;;;;;;;0.30;99.90;;;;;;5097241;28;19930;-80
2023/01/25 11:17:23;;;;;;;;;;;0.30;99.90;;;;;;5104476;28;19932;-80
2023/01/25 11:20:02;;;;;;;;;;;0.20;99.90;;;;;;5109674;28;19924;-80
2023/01/25 11:22:28;;;;;;;;;;;0.20;99.90;;;;;;5110501;28;19924;-80
2023/01/25 11:24:53;;;;;;;;;;;0.30;99.90;;;;;;5097000;28;19934;-79
2023/01/25 11:27:23;;;;;;;;;;;0.20;99.90;;;;;;5115300;28;19959;-80
2023/01/25 11:30:05;;;;;;;;;;;0.20;99.90;;;;;;5113930;28;19947;-79
2023/01/25 11:32:31;;;;;;;;;;;0.20;99.90;;;;;;5104166;28;20612;-80
2023/01/25 11:34:57;;;;;;;;;;;0.30;99.90;;;;;;5119071;28;19938;-78
2023/01/25 11:37:41;;;;;;;;;;;0.30;99.90;;;;;;5116185;28;19931;-79
2023/01/25 11:40:14;;;;;;;;;;;0.30;99.90;;;;;;5119344;28;20409;-79
2023/01/25 11:42:44;;;;;;;;;;;0.30;99.90;;;;;;5119254;28;19930;-79
2023/01/25 11:45:13;;;;;;;;;;;0.30;99.90;;;;;;5116582;28;19928;-79
2023/01/25 11:48:02;;;;;;;;;;;0.30;99.90;;;;;;5117522;28;19927;-80
2023/01/25 11:50:37;;;;;;;;;;;0.30;99.90;;;;;;5108092;28;19934;-80
2023/01/25 11:53:22;;;;;;;;;;;0.40;99.90;;;;;;5118502;28;19970;-79
2023/01/25 11:56:03;;;;;;;;;;;0.40;99.90;;;;;;5119708;28;19928;-79
2023/01/25 11:58:30;;;;;;;;;;;0.40;99.90;;;;;;5119585;27;20407;-79
2023/01/25 12:01:17;;;;;;;;;;;0.40;99.90;;;;;;5117031;27;20378;-79
2023/01/25 12:03:55;;;;;;;;;;;0.30;99.90;;;;;;5100546;28;19934;-79
2023/01/25 12:06:32;;;;;;;;;;;0.30;99.90;;;;;;5117372;28;19946;-79
2023/01/25 12:09:04;;;;;;;;;;;0.30;99.90;;;;;;5119246;28;19930;-79
2023/01/25 12:11:48;;;;;;;;;;;0.30;99.90;;;;;;5101650;28;19930;-80
2023/01/25 12:14:32;;;;;;;;;;;0.30;99.90;;;;;;5120560;28;19934;-79
2023/01/25 12:17:16;;;;;;;;;;;0.20;99.90;;;;;;5121131;28;19938;-79
2023/01/25 12:19:42;;;;;;;;;;;0.20;99.90;;;;;;5118751;28;19927;-79
2023/01/25 12:22:32;;;;;;;;;;;0.10;99.90;;;;;;5093808;28;19945;-79
2023/01/25 12:24:57;;;;;;;;;;;0.10;99.90;;;;;;5097447;28;19935;-79
2023/01/25 12:27:42;;;;;;;;;;;0.10;99.90;;;;;;5102533;28;19924;-79
2023/01/25 12:30:14;;;;;;;;;;;0.10;99.90;;;;;;5115312;28;19923;-79
2023/01/25 12:32:46;;;;;;;;;;;0.10;99.90;;;;;;5117545;28;19924;-79
2023/01/25 12:35:30;;;;;;;;;;;0.20;99.90;;;;;;5121010;28;20358;-79
2023/01/25 12:38:03;;;;;;;;;;;0.10;99.90;;;;;;5116631;27;19923;-79
2023/01/25 12:40:38;;;;;;;;;;;0.20;99.90;;;;;;5114941;27;19934;-79
2023/01/25 12:43:06;;;;;;;;;;;0.20;99.90;;;;;;5120123;27;20026;-79
2023/01/25 12:45:34;;;;;;;;;;;0.20;99.90;;;;;;5122624;27;19923;-79
2023/01/25 12:48:02;;;;;;;;;;;0.10;99.90;;;;;;5118002;27;19983;-79
2023/01/25 12:50:37;;;;;;;;;;;0.20;99.90;;;;;;5122146;27;19934;-79
2023/01/25 12:53:12;;;;;;;;;;;0.10;99.90;;;;;;5095739;27;19980;-79
2023/01/25 12:55:39;;;;;;;;;;;0.00;99.90;;;;;;5140694;27;19923;-78
2023/01/25 12:58:22;;;;;;;;;;;0.10;99.90;;;;;;5105525;27;19927;-79
2023/01/25 13:00:48;;;;;;;;;;;0.00;99.90;;;;;;5116706;28;19923;-80
2023/01/25 13:03:24;;;;;;;;;;;0.00;99.90;;;;;;5102214;28;20005;-79
2023/01/25 13:05:52;;;;;;;;;;;0.00;99.90;;;;;;5111304;27;19945;-79
2023/01/25 13:08:37;;;;;;;;;;;0.00;99.90;;;;;;5125234;27;19923;-78
2023/01/25 13:11:23;;;;;;;;;;;0.00;99.90;;;;;;5137185;27;19954;-78
2023/01/25 13:13:48;;;;;;;;;;;0.00;99.90;;;;;;5117496;27;19923;-79
2023/01/25 13:16:29;;;;;;;;;;;-0.10;99.90;;;;;;5119987;27;20023;-79
2023/01/25 13:18:58;;;;;;;;;;;0.00;99.90;;;;;;5116242;27;19924;-79
2023/01/25 13:21:36;;;;;;;;;;;0.00;99.90;;;;;;5115517;27;19985;-79
2023/01/25 13:24:12;;;;;;;;;;;0.10;99.90;;;;;;5113413;27;19937;-79
2023/01/25 13:26:45;;;;;;;;;;;0.10;99.90;;;;;;5128156;27;19923;-79
2023/01/25 13:29:30;;;;;;;;;;;0.10;99.90;;;;;;5117501;27;19934;-79
2023/01/25 13:31:55;;;;;;;;;;;0.10;99.90;;;;;;5097346;27;19924;-79
2023/01/25 13:34:33;;;;;;;;;;;0.10;99.90;;;;;;5112121;27;19930;-79
2023/01/25 13:36:59;;;;;;;;;;;0.00;99.90;;;;;;5121681;27;19934;-79
2023/01/25 13:39:27;;;;;;;;;;;0.00;99.90;;;;;;5119079;28;19927;-80
2023/01/25 13:42:00;;;;;;;;;;;0.00;99.90;;;;;;5113877;28;19928;-79
2023/01/25 13:44:30;;;;;;;;;;;0.00;99.90;;;;;;5109179;28;19923;-80
2023/01/25 13:46:58;;;;;;;;;;;-0.10;99.90;;;;;;5114747;28;19923;-79
2023/01/25 13:49:27;;;;;;;;;;;0.00;99.90;;;;;;5111339;28;19939;-79
2023/01/25 13:51:52;;;;;;;;;;;-0.10;99.90;;;;;;5110734;28;19924;-79
2023/01/25 13:54:18;;;;;;;;;;;-0.10;99.90;;;;;;5113055;28;20026;-79
2023/01/25 13:56:44;;;;;;;;;;;0.00;99.90;;;;;;5096284;28;19939;-79
2023/01/25 13:59:23;;;;;;;;;;;0.00;99.90;;;;;;5111620;28;19935;-79
2023/01/25 14:01:49;;;;;;;;;;;0.00;99.90;;;;;;5098496;28;19924;-80
2023/01/25 14:04:14;;;;;;;;;;;0.00;99.90;;;;;;5114227;28;20014;-80
2023/01/25 14:06:40;;;;;;;;;;;0.10;99.90;;;;;;5097168;28;19935;-79
2023/01/25 14:09:18;;;;;;;;;;;0.10;99.90;;;;;;5119684;28;19923;-79
2023/01/25 14:11:53;;;;;;;;;;;0.10;99.90;;;;;;5117929;28;19989;-79
2023/01/25 14:14:26;;;;;;;;;;;0.00;99.90;;;;;;5112086;28;19923;-80
2023/01/25 14:17:07;;;;;;;;;;;0.00;99.90;;;;;;5116112;28;20064;-79
2023/01/25 14:19:39;;;;;;;;;;;-0.10;99.90;;;;;;5106267;28;19943;-79
2023/01/25 14:22:23;;;;;;;;;;;-0.10;99.90;;;;;;5117227;28;19939;-79
2023/01/25 14:25:06;;;;;;;;;;;-0.10;99.90;;;;;;5114195;28;19962;-79
2023/01/25 14:27:33;;;;;;;;;;;-0.10;99.90;;;;;;5118376;28;19930;-79
2023/01/25 14:29:59;;;;;;;;;;;-0.10;99.90;;;;;;5114331;28;19939;-80
2023/01/25 14:32:26;;;;;;;;;;;-0.10;99.90;;;;;;5106925;28;20298;-79
2023/01/25 14:34:51;;;;;;;;;;;-0.10;99.90;;;;;;5113806;28;19930;-79
2023/01/25 14:37:19;;;;;;;;;;;-0.10;99.90;;;;;;5115960;28;19967;-79
2023/01/25 14:39:45;;;;;;;;;;;-0.20;99.90;;;;;;5111128;28;19999;-79